CSN6800 ZSHC-ZYTL
Flight info
| Callsign | CSN6800 |
|---|---|
| Flight time | N/A |
| Altitude | 321 |
| Route | NIVIK W135 DOGVI A470 OF W178 RUXEL GURIL MABEB XDX URBAD W172 IGDEG W173 NIXEP |
| Aircraft | A20N/M-SDE2E3FGHIJ1J3J4J5RWY/LB1 |
Departure
| Time | 2026-04-30 14:41 |
|---|---|
| Airport | Hangzhou Xiaoshan International Airport (ZSHC) |
Arrival
| Time | N/A |
|---|---|
| Airport | Dalian Zhoushuizi International Airport (ZYTL) |
| Time | Latitude | Longitude | Altitude | Speed | Heading |
|---|---|---|---|---|---|
| 2026-04-30 13:47 | 30.23754 | 120.43408 | 31 ft | 0 kts | 243° |
| 2026-04-30 14:17 | 30.23757 | 120.43415 | 31 ft | 4 kts | 243° |
| 2026-04-30 14:18 | 30.23770 | 120.43442 | 31 ft | 4 kts | 241° |
| 2026-04-30 14:18 | 30.23780 | 120.43465 | 31 ft | 3 kts | 243° |
| 2026-04-30 14:18 | 30.23777 | 120.43520 | 31 ft | 4 kts | 323° |
| 2026-04-30 14:19 | 30.23757 | 120.43534 | 31 ft | 1 kts | 333° |
| 2026-04-30 14:23 | 30.23785 | 120.43517 | 31 ft | 5 kts | 333° |
| 2026-04-30 14:23 | 30.23871 | 120.43520 | 31 ft | 9 kts | 61° |
| 2026-04-30 14:24 | 30.23936 | 120.43667 | 31 ft | 6 kts | 62° |
| 2026-04-30 14:24 | 30.23956 | 120.43711 | 31 ft | 7 kts | 62° |
| 2026-04-30 14:25 | 30.23971 | 120.43744 | 31 ft | 5 kts | 62° |
| 2026-04-30 14:25 | 30.24047 | 120.43736 | 31 ft | 8 kts | 331° |
| 2026-04-30 14:26 | 30.24180 | 120.43659 | 31 ft | 13 kts | 333° |
| 2026-04-30 14:26 | 30.24267 | 120.43607 | 31 ft | 15 kts | 333° |
| 2026-04-30 14:26 | 30.24451 | 120.43500 | 31 ft | 15 kts | 333° |
| 2026-04-30 14:27 | 30.24477 | 120.43485 | 31 ft | 0 kts | 333° |
| 2026-04-30 14:27 | 30.24489 | 120.43478 | 31 ft | 3 kts | 333° |
| 2026-04-30 14:27 | 30.24518 | 120.43460 | 31 ft | 6 kts | 333° |
| 2026-04-30 14:28 | 30.24625 | 120.43397 | 32 ft | 10 kts | 332° |
| 2026-04-30 14:28 | 30.24637 | 120.43331 | 32 ft | 9 kts | 230° |
| 2026-04-30 14:28 | 30.24604 | 120.43258 | 32 ft | 11 kts | 243° |
| 2026-04-30 14:28 | 30.24565 | 120.43171 | 32 ft | 13 kts | 242° |
| 2026-04-30 14:29 | 30.24475 | 120.42967 | 31 ft | 12 kts | 243° |
| 2026-04-30 14:29 | 30.24402 | 120.42800 | 31 ft | 15 kts | 243° |
| 2026-04-30 14:30 | 30.24278 | 120.42520 | 31 ft | 0 kts | 243° |
| 2026-04-30 14:31 | 30.24277 | 120.42519 | 31 ft | 1 kts | 243° |
| 2026-04-30 14:31 | 30.24270 | 120.42502 | 32 ft | 4 kts | 243° |
| 2026-04-30 14:32 | 30.24229 | 120.42409 | 31 ft | 9 kts | 243° |
| 2026-04-30 14:32 | 30.24208 | 120.42362 | 31 ft | 10 kts | 243° |
| 2026-04-30 14:32 | 30.24171 | 120.42279 | 32 ft | 13 kts | 243° |
| 2026-04-30 14:33 | 30.24128 | 120.42183 | 32 ft | 14 kts | 243° |
| 2026-04-30 14:33 | 30.24026 | 120.41952 | 31 ft | 18 kts | 243° |
| 2026-04-30 14:33 | 30.23969 | 120.41822 | 31 ft | 19 kts | 243° |
| 2026-04-30 14:34 | 30.23905 | 120.41679 | 31 ft | 20 kts | 243° |
| 2026-04-30 14:34 | 30.23840 | 120.41531 | 31 ft | 21 kts | 243° |
| 2026-04-30 14:34 | 30.23784 | 120.41405 | 31 ft | 18 kts | 243° |
| 2026-04-30 14:34 | 30.23724 | 120.41270 | 32 ft | 19 kts | 243° |
| 2026-04-30 14:35 | 30.23605 | 120.41002 | 32 ft | 11 kts | 243° |
| 2026-04-30 14:35 | 30.23604 | 120.40996 | 32 ft | 0 kts | 257° |
| 2026-04-30 14:35 | 30.23605 | 120.40984 | 32 ft | 3 kts | 279° |
| 2026-04-30 14:36 | 30.23620 | 120.40960 | 32 ft | 5 kts | 320° |
| 2026-04-30 14:36 | 30.23658 | 120.40940 | 32 ft | 7 kts | 335° |
| 2026-04-30 14:36 | 30.23691 | 120.40922 | 32 ft | 0 kts | 334° |
| 2026-04-30 14:38 | 30.23693 | 120.40921 | 31 ft | 1 kts | 334° |
| 2026-04-30 14:38 | 30.23695 | 120.40920 | 30 ft | 0 kts | 334° |
| 2026-04-30 14:39 | 30.23695 | 120.40919 | 31 ft | 1 kts | 334° |
| 2026-04-30 14:39 | 30.23706 | 120.40914 | 32 ft | 3 kts | 334° |
| 2026-04-30 14:39 | 30.23729 | 120.40900 | 31 ft | 5 kts | 334° |
| 2026-04-30 14:40 | 30.23809 | 120.40858 | 33 ft | 7 kts | 351° |
| 2026-04-30 14:40 | 30.23849 | 120.40896 | 34 ft | 9 kts | 62° |
| 2026-04-30 14:40 | 30.23863 | 120.40929 | 33 ft | 0 kts | 64° |
| 2026-04-30 14:40 | 30.23894 | 120.41002 | 34 ft | 39 kts | 64° |
| 2026-04-30 14:41 | 30.24135 | 120.41546 | 31 ft | 113 kts | 63° |
| 2026-04-30 14:41 | 30.24592 | 120.42577 | 34 ft | 172 kts | 63° |
| 2026-04-30 14:41 | 30.25156 | 120.43827 | 691 ft | 175 kts | 63° |
| 2026-04-30 14:41 | 30.25716 | 120.45084 | 1572 ft | 174 kts | 62° |
| 2026-04-30 14:42 | 30.26295 | 120.46326 | 2251 ft | 185 kts | 60° |
| 2026-04-30 14:42 | 30.26938 | 120.47711 | 2695 ft | 206 kts | 61° |
| 2026-04-30 14:42 | 30.27623 | 120.49234 | 3218 ft | 218 kts | 61° |
| 2026-04-30 14:42 | 30.28329 | 120.50840 | 3449 ft | 226 kts | 61° |
| 2026-04-30 14:43 | 30.29033 | 120.52463 | 3560 ft | 226 kts | 61° |
| 2026-04-30 14:43 | 30.30525 | 120.55915 | 3782 ft | 226 kts | 61° |
| 2026-04-30 14:43 | 30.31231 | 120.57546 | 3883 ft | 227 kts | 60° |
| 2026-04-30 14:44 | 30.31938 | 120.59177 | 3892 ft | 227 kts | 60° |
| 2026-04-30 14:44 | 30.32737 | 120.60734 | 3891 ft | 222 kts | 42° |
| 2026-04-30 14:44 | 30.34025 | 120.61640 | 3935 ft | 217 kts | 10° |
| 2026-04-30 14:44 | 30.35498 | 120.61594 | 3955 ft | 212 kts | 338° |
| 2026-04-30 14:45 | 30.36683 | 120.60630 | 3938 ft | 211 kts | 306° |
| 2026-04-30 14:45 | 30.37208 | 120.59066 | 3896 ft | 212 kts | 279° |
| 2026-04-30 14:45 | 30.37513 | 120.57402 | 3895 ft | 210 kts | 282° |
| 2026-04-30 14:45 | 30.37643 | 120.55710 | 3897 ft | 213 kts | 269° |
| 2026-04-30 14:46 | 30.37422 | 120.54012 | 3895 ft | 214 kts | 257° |
| 2026-04-30 14:46 | 30.36941 | 120.52378 | 3896 ft | 215 kts | 250° |
| 2026-04-30 14:46 | 30.36333 | 120.50818 | 3891 ft | 216 kts | 246° |
| 2026-04-30 14:46 | 30.35662 | 120.49266 | 3893 ft | 216 kts | 245° |
| 2026-04-30 14:47 | 30.34975 | 120.47720 | 3906 ft | 216 kts | 245° |
| 2026-04-30 14:47 | 30.34283 | 120.46163 | 3937 ft | 222 kts | 245° |
| 2026-04-30 14:47 | 30.33548 | 120.44512 | 4143 ft | 240 kts | 245° |
| 2026-04-30 14:47 | 30.32774 | 120.42781 | 4991 ft | 243 kts | 246° |
| 2026-04-30 14:48 | 30.31990 | 120.41030 | 5811 ft | 248 kts | 247° |
| 2026-04-30 14:48 | 30.31190 | 120.39233 | 6577 ft | 255 kts | 248° |
| 2026-04-30 14:48 | 30.30370 | 120.37385 | 7166 ft | 262 kts | 248° |
| 2026-04-30 14:48 | 30.29544 | 120.35528 | 7264 ft | 257 kts | 248° |
| 2026-04-30 14:49 | 30.28728 | 120.33691 | 7367 ft | 257 kts | 248° |
| 2026-04-30 14:49 | 30.27911 | 120.31851 | 7476 ft | 257 kts | 248° |
| 2026-04-30 14:49 | 30.27111 | 120.30001 | 7572 ft | 255 kts | 254° |
| 2026-04-30 14:49 | 30.26862 | 120.28033 | 7683 ft | 244 kts | 282° |
| 2026-04-30 14:50 | 30.28594 | 120.24924 | 7866 ft | 236 kts | 330° |
| 2026-04-30 14:50 | 30.30091 | 120.24036 | 7874 ft | 254 kts | 333° |
| 2026-04-30 14:51 | 30.33312 | 120.22196 | 7869 ft | 258 kts | 336° |
| 2026-04-30 14:51 | 30.34965 | 120.21380 | 7866 ft | 258 kts | 336° |
| 2026-04-30 14:51 | 30.38260 | 120.19733 | 7867 ft | 258 kts | 336° |
| 2026-04-30 14:52 | 30.39911 | 120.18905 | 7866 ft | 258 kts | 336° |
| 2026-04-30 14:52 | 30.43201 | 120.17254 | 7866 ft | 258 kts | 336° |
| 2026-04-30 14:52 | 30.44846 | 120.16428 | 7857 ft | 258 kts | 336° |
| 2026-04-30 14:53 | 30.48111 | 120.14743 | 7866 ft | 257 kts | 331° |
| 2026-04-30 14:53 | 30.49617 | 120.13604 | 8149 ft | 260 kts | 323° |
| 2026-04-30 14:54 | 30.52518 | 120.11140 | 9956 ft | 259 kts | 323° |
| 2026-04-30 14:54 | 30.55639 | 120.08523 | 10662 ft | 299 kts | 323° |
| 2026-04-30 14:55 | 30.59119 | 120.05592 | 11944 ft | 312 kts | 323° |
| 2026-04-30 14:55 | 30.60881 | 120.04108 | 12726 ft | 314 kts | 323° |
| 2026-04-30 14:55 | 30.64449 | 120.01101 | 14234 ft | 319 kts | 322° |
| 2026-04-30 14:56 | 30.68061 | 119.98051 | 15628 ft | 322 kts | 322° |
| 2026-04-30 14:56 | 30.71690 | 119.94983 | 16973 ft | 327 kts | 321° |
| 2026-04-30 14:57 | 30.73535 | 119.93421 | 17631 ft | 330 kts | 321° |
| 2026-04-30 14:57 | 30.77257 | 119.90262 | 18971 ft | 331 kts | 321° |
| 2026-04-30 14:58 | 30.80956 | 119.87084 | 20211 ft | 332 kts | 320° |
| 2026-04-30 14:58 | 30.82812 | 119.85484 | 20833 ft | 332 kts | 320° |
| 2026-04-30 14:58 | 30.86542 | 119.82269 | 21978 ft | 335 kts | 320° |
| 2026-04-30 14:59 | 30.90313 | 119.79017 | 23081 ft | 339 kts | 320° |
| 2026-04-30 15:00 | 30.96016 | 119.74096 | 24604 ft | 341 kts | 320° |
| 2026-04-30 15:00 | 30.99835 | 119.70797 | 25564 ft | 342 kts | 320° |
| 2026-04-30 15:01 | 31.03675 | 119.67484 | 26392 ft | 344 kts | 319° |
| 2026-04-30 15:01 | 31.04950 | 119.66378 | 26658 ft | 345 kts | 319° |
| 2026-04-30 15:01 | 31.08218 | 119.63541 | 27467 ft | 345 kts | 320° |
| 2026-04-30 15:02 | 31.09494 | 119.62433 | 27743 ft | 345 kts | 320° |
| 2026-04-30 15:02 | 31.12081 | 119.60189 | 28238 ft | 347 kts | 320° |
| 2026-04-30 15:03 | 31.17264 | 119.55691 | 29164 ft | 350 kts | 319° |
| 2026-04-30 15:03 | 31.20358 | 119.53000 | 29647 ft | 352 kts | 319° |
| 2026-04-30 15:04 | 31.24302 | 119.49575 | 30281 ft | 354 kts | 319° |
| 2026-04-30 15:04 | 31.30274 | 119.44382 | 31038 ft | 359 kts | 319° |
| 2026-04-30 15:05 | 31.36285 | 119.39157 | 31998 ft | 358 kts | 319° |
| 2026-04-30 15:06 | 31.40249 | 119.35696 | 32187 ft | 352 kts | 320° |
| 2026-04-30 15:07 | 31.48102 | 119.28840 | 32201 ft | 352 kts | 320° |
| 2026-04-30 15:08 | 31.55954 | 119.21975 | 32195 ft | 352 kts | 320° |
| 2026-04-30 15:09 | 31.65659 | 119.13210 | 32198 ft | 352 kts | 316° |
| 2026-04-30 15:10 | 31.73010 | 119.05650 | 32200 ft | 349 kts | 317° |
| 2026-04-30 15:11 | 31.84689 | 118.95350 | 32180 ft | 355 kts | 329° |
| 2026-04-30 15:13 | 31.96306 | 118.90005 | 32211 ft | 361 kts | 333° |
| 2026-04-30 15:14 | 32.12588 | 118.82683 | 32187 ft | 357 kts | 333° |
| 2026-04-30 15:17 | 32.33486 | 118.73252 | 32190 ft | 358 kts | 334° |
| 2026-04-30 15:19 | 32.52053 | 118.64836 | 32171 ft | 356 kts | 334° |